createdAt,value
2023-04-18T00:00:00.695Z,0
2023-04-18T00:05:01.472Z,0
2023-04-18T00:10:01.269Z,0
2023-04-18T00:15:00.607Z,0
2023-04-18T00:20:00.618Z,0
2023-04-18T00:25:00.620Z,0
2023-04-18T00:30:00.789Z,0
2023-04-18T00:35:00.809Z,0
2023-04-18T00:40:00.654Z,0
2023-04-18T00:45:00.684Z,0
2023-04-18T00:50:00.697Z,0
2023-04-18T00:55:00.732Z,0
2023-04-18T01:00:00.716Z,0
2023-04-18T01:05:00.694Z,0
2023-04-18T01:10:00.672Z,0
2023-04-18T01:15:00.709Z,0
2023-04-18T01:20:01.203Z,0
2023-04-18T01:25:00.717Z,0
2023-04-18T01:30:00.715Z,0
2023-04-18T01:35:00.744Z,0
2023-04-18T01:40:00.636Z,0
2023-04-18T01:45:00.660Z,0
2023-04-18T01:50:00.593Z,0
2023-04-18T01:55:00.537Z,0
2023-04-18T02:00:00.814Z,0
2023-04-18T02:05:00.626Z,0
2023-04-18T02:10:00.620Z,0
2023-04-18T02:15:00.759Z,0
2023-04-18T02:20:00.637Z,0
2023-04-18T02:25:00.517Z,0
2023-04-18T02:30:00.640Z,0
2023-04-18T02:35:00.676Z,0
2023-04-18T02:40:00.701Z,0
2023-04-18T02:45:00.651Z,0
2023-04-18T02:50:00.709Z,0
2023-04-18T02:55:00.633Z,0
2023-04-18T03:00:00.698Z,0
2023-04-18T03:05:00.835Z,0
2023-04-18T03:10:01.004Z,0
2023-04-18T03:15:00.606Z,0
2023-04-18T03:20:01.290Z,0
2023-04-18T03:25:00.716Z,0
2023-04-18T03:30:00.690Z,0
2023-04-18T03:35:00.720Z,0
2023-04-18T03:40:00.712Z,0
2023-04-18T03:45:01.005Z,0
2023-04-18T03:50:00.707Z,0
2023-04-18T03:55:00.559Z,0
2023-04-18T04:00:00.718Z,0
2023-04-18T04:05:00.663Z,0
2023-04-18T04:10:01.454Z,0
2023-04-18T04:15:00.685Z,9
2023-04-18T04:20:00.545Z,16
2023-04-18T04:25:00.529Z,30
2023-04-18T04:30:00.563Z,62
2023-04-18T04:35:00.510Z,86
2023-04-18T04:40:00.565Z,120
2023-04-18T04:45:00.604Z,169
2023-04-18T04:50:00.700Z,199
2023-04-18T04:55:00.701Z,235
2023-04-18T05:00:00.620Z,277
2023-04-18T05:05:00.555Z,235
2023-04-18T05:10:00.698Z,224
2023-04-18T05:15:00.835Z,278
2023-04-18T05:20:00.911Z,387
2023-04-18T05:25:00.733Z,654
2023-04-18T05:30:00.727Z,938
2023-04-18T05:35:00.718Z,1054
2023-04-18T05:40:01.126Z,1701
2023-04-18T05:45:00.853Z,2159
2023-04-18T05:50:00.597Z,2427
2023-04-18T05:55:00.581Z,2427
2023-04-18T06:00:00.770Z,2427
2023-04-18T06:05:00.754Z,2729
2023-04-18T06:10:00.714Z,3073
2023-04-18T06:15:00.981Z,3880
2023-04-18T06:20:00.647Z,4376
2023-04-18T06:25:00.744Z,5556
2023-04-18T06:30:00.649Z,6243
2023-04-18T06:35:00.792Z,4374
2023-04-18T06:40:00.828Z,3892
2023-04-18T06:45:00.722Z,3892
2023-04-18T06:50:00.699Z,3463
2023-04-18T06:55:00.668Z,3908
2023-04-18T07:00:00.572Z,5028
2023-04-18T07:05:00.871Z,5690
2023-04-18T07:10:00.853Z,5673
2023-04-18T07:15:00.511Z,5668
2023-04-18T07:20:00.560Z,5668
2023-04-18T07:25:00.751Z,5668
2023-04-18T07:30:00.558Z,5668
2023-04-18T07:35:00.635Z,5621
2023-04-18T07:40:00.656Z,7094
2023-04-18T07:45:00.706Z,9101
2023-04-18T07:50:00.688Z,6785
2023-04-18T07:55:01.369Z,6216
2023-04-18T08:00:01.294Z,6216
2023-04-18T08:10:00.261Z,6204
2023-04-18T08:15:00.279Z,9036
2023-04-18T08:20:00.281Z,9036
2023-04-18T08:25:05.077Z,8015
2023-04-18T08:30:00.291Z,9539
2023-04-18T08:35:00.296Z,8461
2023-04-18T08:40:00.313Z,8461
2023-04-18T08:45:00.305Z,9497
2023-04-18T08:50:00.282Z,12823
2023-04-18T08:55:00.273Z,10028
2023-04-18T09:00:00.281Z,10028
2023-04-18T09:05:00.295Z,10009
2023-04-18T09:10:00.276Z,8888
2023-04-18T09:15:00.284Z,6969
2023-04-18T09:20:00.281Z,11529
2023-04-18T09:25:00.324Z,9039
2023-04-18T09:30:00.311Z,10200
2023-04-18T09:35:01.446Z,11468
2023-04-18T09:40:00.308Z,11460
2023-04-18T09:45:00.295Z,12900
2023-04-18T09:50:00.282Z,12900
2023-04-18T09:55:00.316Z,14890
2023-04-18T10:00:00.309Z,13210
2023-04-18T10:05:01.131Z,15492
2023-04-18T10:10:00.283Z,13772
2023-04-18T10:15:00.284Z,13772
2023-04-18T10:20:00.267Z,13785
2023-04-18T10:25:00.283Z,13785
2023-04-18T10:30:00.283Z,18629
2023-04-18T10:35:00.279Z,14749
2023-04-18T10:40:00.327Z,13047
2023-04-18T10:45:00.302Z,13047
2023-04-18T10:50:00.281Z,13047
2023-04-18T10:55:00.283Z,13047
2023-04-18T11:00:00.258Z,16862
2023-04-18T11:05:00.273Z,16862
2023-04-18T11:10:00.277Z,14949
2023-04-18T11:15:00.280Z,17179
2023-04-18T11:20:00.293Z,19875
2023-04-18T11:25:00.283Z,13539
2023-04-18T11:30:00.285Z,18378
2023-04-18T11:35:00.296Z,20446
2023-04-18T11:40:00.284Z,10789
2023-04-18T11:45:00.298Z,9596
2023-04-18T11:50:00.297Z,9563
2023-04-18T11:55:00.301Z,7527
2023-04-18T12:00:00.309Z,8492
2023-04-18T12:05:00.629Z,10245
2023-04-18T12:10:00.288Z,8045
2023-04-18T12:15:00.304Z,8008
2023-04-18T12:20:00.284Z,10139
2023-04-18T12:25:00.280Z,12856
2023-04-18T12:30:00.291Z,12856
2023-04-18T12:35:00.434Z,11416
2023-04-18T12:40:00.275Z,27221
2023-04-18T12:45:00.354Z,27504
2023-04-18T12:50:00.308Z,41764
2023-04-18T12:55:00.334Z,16626
2023-04-18T13:00:00.294Z,12936
2023-04-18T13:05:00.329Z,19797
2023-04-18T13:10:00.299Z,14706
2023-04-18T13:15:00.277Z,52590
2023-04-18T13:20:00.280Z,41899
2023-04-18T13:25:00.286Z,15671
2023-04-18T13:30:00.290Z,15241
2023-04-18T13:35:00.286Z,49147
2023-04-18T13:40:00.279Z,17579
2023-04-18T13:45:00.302Z,15581
2023-04-18T13:50:00.327Z,39129
2023-04-18T13:55:00.286Z,11389
2023-04-18T14:00:00.280Z,22070
2023-04-18T14:05:00.675Z,38557
2023-04-18T14:10:00.274Z,22746
2023-04-18T14:15:00.290Z,23458
2023-04-18T14:20:00.318Z,23442
2023-04-18T14:25:00.278Z,20193
2023-04-18T14:30:00.279Z,14194
2023-04-18T14:35:00.285Z,68929
2023-04-18T14:40:00.282Z,65178
2023-04-18T14:45:00.299Z,65178
2023-04-18T14:50:00.342Z,21291
2023-04-18T14:55:00.296Z,19244
2023-04-18T15:00:00.303Z,67936
2023-04-18T15:05:00.370Z,19391
2023-04-18T15:10:00.288Z,31175
2023-04-18T15:15:00.284Z,68187
2023-04-18T15:20:00.294Z,27096
2023-04-18T15:25:00.282Z,17608
2023-04-18T15:30:00.283Z,23318
2023-04-18T15:35:00.311Z,16417
2023-04-18T15:40:00.295Z,16634
2023-04-18T15:45:00.301Z,63621
2023-04-18T15:50:00.306Z,39418
2023-04-18T15:55:00.342Z,19779
2023-04-18T16:00:00.318Z,15944
2023-04-18T16:05:00.304Z,20212
2023-04-18T16:10:00.277Z,17274
2023-04-18T16:15:00.289Z,13842
2023-04-18T16:20:00.285Z,11779
2023-04-18T16:25:00.343Z,15399
2023-04-18T16:30:00.292Z,53777
2023-04-18T16:35:00.287Z,53777
2023-04-18T16:40:00.364Z,54325
2023-04-18T16:45:00.298Z,25322
2023-04-18T16:50:00.554Z,51570
2023-04-18T16:55:00.307Z,39346
2023-04-18T17:00:00.289Z,49175
2023-04-18T17:05:00.383Z,12557
2023-04-18T17:10:00.294Z,34340
2023-04-18T17:15:00.321Z,39811
2023-04-18T17:20:00.279Z,39811
2023-04-18T17:25:00.291Z,18785
2023-04-18T17:30:00.258Z,21419
2023-04-18T17:35:00.271Z,6917
2023-04-18T17:40:00.283Z,6194
2023-04-18T17:45:00.311Z,5493
2023-04-18T17:50:00.278Z,7099
2023-04-18T17:55:00.278Z,4724
2023-04-18T18:00:00.283Z,3809
2023-04-18T18:05:00.292Z,3387
2023-04-18T18:10:00.280Z,2679
2023-04-18T18:15:00.295Z,2119
2023-04-18T18:20:00.289Z,1481
2023-04-18T18:25:00.283Z,1171
2023-04-18T18:30:00.329Z,822
2023-04-18T18:35:00.295Z,578
2023-04-18T18:40:00.284Z,434
2023-04-18T18:45:00.310Z,263
2023-04-18T18:50:00.306Z,158
2023-04-18T18:55:00.291Z,80
2023-04-18T19:00:00.282Z,43
2023-04-18T19:05:00.575Z,22
2023-04-18T19:10:00.282Z,15
2023-04-18T19:15:00.293Z,8
2023-04-18T19:20:00.301Z,8
2023-04-18T19:25:00.285Z,8
2023-04-18T19:30:00.269Z,0
2023-04-18T19:35:00.293Z,0
2023-04-18T19:40:00.284Z,0
2023-04-18T19:45:00.315Z,0
2023-04-18T19:50:00.274Z,0
2023-04-18T19:55:00.300Z,0
2023-04-18T20:00:00.272Z,0
2023-04-18T20:05:00.505Z,0
2023-04-18T20:10:00.281Z,0
2023-04-18T20:15:00.289Z,0
2023-04-18T20:20:00.281Z,0
2023-04-18T20:25:00.273Z,0
2023-04-18T20:30:00.282Z,0
2023-04-18T20:35:00.289Z,0
2023-04-18T20:40:00.286Z,0
2023-04-18T20:45:00.277Z,0
2023-04-18T20:50:00.276Z,0
2023-04-18T21:25:00.254Z,0
2023-04-18T21:30:00.924Z,0
2023-04-18T21:35:00.236Z,0
2023-04-18T21:40:00.239Z,0
2023-04-18T21:45:00.244Z,0
2023-04-18T21:50:00.224Z,0
2023-04-18T21:55:00.234Z,0
2023-04-18T22:00:00.244Z,0
2023-04-18T22:05:00.241Z,0
2023-04-18T22:10:00.281Z,0
2023-04-18T22:15:00.243Z,0
2023-04-18T22:20:00.251Z,0
2023-04-18T22:25:00.242Z,0
2023-04-18T22:30:00.226Z,0
2023-04-18T22:35:00.255Z,0
2023-04-18T22:40:00.228Z,0
2023-04-18T22:45:00.246Z,0
2023-04-18T22:50:00.232Z,0
2023-04-18T22:55:00.228Z,0
2023-04-18T23:00:00.235Z,0
2023-04-18T23:05:00.226Z,0
2023-04-18T23:10:00.361Z,0
2023-04-18T23:15:00.245Z,0
2023-04-18T23:20:00.235Z,0
2023-04-18T23:25:00.239Z,0
2023-04-18T23:30:00.235Z,0
2023-04-18T23:35:00.264Z,0
2023-04-18T23:40:00.281Z,0
2023-04-18T23:45:00.236Z,0
2023-04-18T23:50:00.263Z,0
2023-04-18T23:55:00.242Z,0
